createdAt,value
2022-08-31T00:00:53.669Z,100124.84
2022-08-31T00:03:25.017Z,100126.53
2022-08-31T00:06:03.187Z,100129.59
2022-08-31T00:08:32.481Z,100136.97
2022-08-31T00:11:00.039Z,100130.72
2022-08-31T00:13:29.989Z,100125.91
2022-08-31T00:15:57.816Z,100120.44
2022-08-31T00:18:25.762Z,100126.75
2022-08-31T00:20:54.857Z,100131.34
2022-08-31T00:23:22.155Z,100140.66
2022-08-31T00:25:49.810Z,100137.22
2022-08-31T00:28:18.907Z,100134.94
2022-08-31T00:30:46.786Z,100126.31
2022-08-31T00:33:14.211Z,100116.41
2022-08-31T00:35:42.841Z,100121.50
2022-08-31T00:38:12.068Z,100132.84
2022-08-31T00:40:45.017Z,100125.22
2022-08-31T00:43:47.504Z,100117.66
2022-08-31T00:46:18.667Z,100119.28
2022-08-31T00:48:57.614Z,100127.06
2022-08-31T00:51:27.290Z,100125.31
2022-08-31T00:53:55.117Z,100132.50
2022-08-31T00:56:23.695Z,100125.91
2022-08-31T00:58:54.367Z,100127.84
2022-08-31T01:01:22.960Z,100131.78
2022-08-31T01:03:50.352Z,100133.47
2022-08-31T01:06:18.843Z,100131.97
2022-08-31T01:08:47.328Z,100132.22
2022-08-31T01:11:16.303Z,100123.69
2022-08-31T01:13:43.852Z,100117.81
2022-08-31T01:16:18.544Z,100121.59
2022-08-31T01:18:49.225Z,100124.94
2022-08-31T01:21:32.117Z,100119.91
2022-08-31T01:24:01.882Z,100126.00
2022-08-31T01:26:31.775Z,100132.25
2022-08-31T01:29:03.699Z,100132.50
2022-08-31T01:31:44.641Z,100129.28
2022-08-31T01:34:13.700Z,100127.16
2022-08-31T01:36:43.334Z,100130.94
2022-08-31T01:39:11.227Z,100117.50
2022-08-31T01:41:38.571Z,100123.28
2022-08-31T01:44:05.938Z,100119.56
2022-08-31T01:46:33.398Z,100120.66
2022-08-31T01:49:00.811Z,100118.00
2022-08-31T01:51:28.620Z,100116.16
2022-08-31T01:53:56.184Z,100116.41
2022-08-31T01:56:32.968Z,100125.38
2022-08-31T01:59:03.919Z,100125.91
2022-08-31T02:01:37.134Z,100121.91
2022-08-31T02:04:07.173Z,100115.13
2022-08-31T02:06:34.926Z,100124.53
2022-08-31T02:09:05.781Z,100122.47
2022-08-31T02:11:32.945Z,100120.22
2022-08-31T02:14:00.463Z,100117.44
2022-08-31T02:16:28.328Z,100119.91
2022-08-31T02:18:55.723Z,100124.34
2022-08-31T02:21:23.477Z,100116.47
2022-08-31T02:23:50.912Z,100119.94
2022-08-31T02:26:19.259Z,100116.31
2022-08-31T02:28:47.233Z,100117.81
2022-08-31T02:31:15.482Z,100110.88
2022-08-31T02:33:44.194Z,100118.16
2022-08-31T02:36:12.068Z,100119.59
2022-08-31T02:38:40.574Z,100114.28
2022-08-31T02:41:09.197Z,100122.66
2022-08-31T02:43:36.602Z,100120.72
2022-08-31T02:46:04.432Z,100111.34
2022-08-31T02:48:51.130Z,100110.16
2022-08-31T02:51:41.503Z,100110.28
2022-08-31T02:54:28.186Z,100121.34
2022-08-31T02:57:15.129Z,100122.31
2022-08-31T03:00:01.903Z,100119.91
2022-08-31T03:02:49.537Z,100121.69
2022-08-31T03:05:17.797Z,100120.59
2022-08-31T03:07:45.429Z,100128.28
2022-08-31T03:10:13.736Z,100124.59
2022-08-31T03:12:41.278Z,100141.97
2022-08-31T03:15:10.386Z,100143.19
2022-08-31T03:17:37.891Z,100144.66
2022-08-31T03:20:06.169Z,100146.88
2022-08-31T03:22:34.038Z,100144.47
2022-08-31T03:25:01.318Z,100153.88
2022-08-31T03:27:29.303Z,100149.00
2022-08-31T03:29:57.197Z,100150.50
2022-08-31T03:32:26.353Z,100143.75
2022-08-31T03:35:09.329Z,100141.41
2022-08-31T03:37:36.853Z,100152.50
2022-08-31T03:40:05.189Z,100155.88
2022-08-31T03:42:33.116Z,100145.63
2022-08-31T03:45:01.605Z,100147.28
2022-08-31T03:47:29.494Z,100148.63
2022-08-31T03:49:59.024Z,100156.59
2022-08-31T03:52:27.048Z,100156.97
2022-08-31T03:55:00.770Z,100158.28
2022-08-31T03:57:28.785Z,100157.50
2022-08-31T03:59:59.467Z,100173.31
2022-08-31T04:02:27.541Z,100168.94
2022-08-31T04:05:00.419Z,100172.16
2022-08-31T04:07:42.474Z,100170.59
2022-08-31T04:10:14.685Z,100171.25
2022-08-31T04:12:49.058Z,100174.28
2022-08-31T04:15:18.285Z,100163.94
2022-08-31T04:17:52.204Z,100179.97
2022-08-31T04:20:33.294Z,100180.84
2022-08-31T04:23:04.627Z,100173.97
2022-08-31T04:25:37.698Z,100173.44
2022-08-31T04:28:08.455Z,100172.06
2022-08-31T04:30:45.004Z,100171.16
2022-08-31T04:33:12.496Z,100163.94
2022-08-31T04:35:41.543Z,100179.09
2022-08-31T04:40:41.371Z,100179.16
2022-08-31T04:43:09.849Z,100176.78
2022-08-31T04:45:41.367Z,100182.84
2022-08-31T04:48:09.879Z,100176.38
2022-08-31T04:50:42.649Z,100185.06
2022-08-31T04:53:13.356Z,100180.50
2022-08-31T04:55:42.481Z,100186.03
2022-08-31T04:58:14.000Z,100183.38
2022-08-31T05:00:47.027Z,100183.91
2022-08-31T05:03:20.375Z,100185.06
2022-08-31T05:05:51.360Z,100179.53
2022-08-31T05:08:18.924Z,100178.53
2022-08-31T05:10:46.419Z,100173.66
2022-08-31T05:13:17.204Z,100172.53
2022-08-31T05:15:47.413Z,100175.97
2022-08-31T05:18:21.219Z,100176.50
2022-08-31T05:20:48.598Z,100171.31
2022-08-31T05:23:18.550Z,100171.16
2022-08-31T05:25:50.205Z,100169.91
2022-08-31T05:28:20.282Z,100170.19
2022-08-31T05:30:53.887Z,100163.94
2022-08-31T05:33:27.097Z,100173.94
2022-08-31T05:35:54.835Z,100166.19
2022-08-31T05:38:25.728Z,100162.22
2022-08-31T05:40:56.517Z,100156.84
2022-08-31T05:43:24.493Z,100158.44
2022-08-31T05:45:55.648Z,100162.84
2022-08-31T05:48:23.542Z,100161.56
2022-08-31T05:51:01.155Z,100160.09
2022-08-31T05:53:32.421Z,100156.66
2022-08-31T05:56:06.208Z,100155.94
2022-08-31T05:58:38.384Z,100157.84
2022-08-31T06:01:32.925Z,100156.03
2022-08-31T06:04:04.053Z,100148.78
2022-08-31T06:06:31.497Z,100151.13
2022-08-31T06:09:03.044Z,100151.59
2022-08-31T06:11:31.442Z,100148.34
2022-08-31T06:14:01.557Z,100152.31
2022-08-31T06:16:35.730Z,100142.25
2022-08-31T06:19:05.607Z,100150.50
2022-08-31T06:21:39.114Z,100148.78
2022-08-31T06:24:23.348Z,100151.59
2022-08-31T06:26:59.162Z,100162.19
2022-08-31T06:29:35.605Z,100150.78
2022-08-31T06:32:03.806Z,100154.00
2022-08-31T06:34:38.182Z,100159.97
2022-08-31T06:37:06.962Z,100159.66
2022-08-31T06:39:37.409Z,100161.09
2022-08-31T06:42:11.602Z,100165.94
2022-08-31T06:44:41.979Z,100171.69
2022-08-31T06:47:14.862Z,100169.75
2022-08-31T06:49:45.722Z,100175.22
2022-08-31T06:52:20.654Z,100183.13
2022-08-31T06:54:48.015Z,100191.25
2022-08-31T06:57:23.144Z,100193.31
2022-08-31T06:59:59.865Z,100184.69
2022-08-31T07:02:31.068Z,100188.22
2022-08-31T07:05:01.712Z,100194.91
2022-08-31T07:07:31.948Z,100196.41
2022-08-31T07:09:59.294Z,100195.69
2022-08-31T07:12:31.098Z,100193.91
2022-08-31T07:15:01.899Z,100198.50
2022-08-31T07:17:33.096Z,100207.41
2022-08-31T07:20:00.378Z,100205.84
2022-08-31T07:22:33.471Z,100204.25
2022-08-31T07:25:02.357Z,100207.41
2022-08-31T07:27:40.076Z,100206.44
2022-08-31T07:30:13.812Z,100202.19
2022-08-31T07:32:47.143Z,100207.75
2022-08-31T07:35:28.119Z,100206.25
2022-08-31T07:37:59.168Z,100211.91
2022-08-31T07:40:30.643Z,100210.28
2022-08-31T07:43:01.483Z,100208.41
2022-08-31T07:45:37.804Z,100204.72
2022-08-31T07:48:13.489Z,100211.91
2022-08-31T07:50:50.050Z,100208.88
2022-08-31T07:53:22.484Z,100205.03
2022-08-31T07:55:54.065Z,100205.47
2022-08-31T07:58:28.223Z,100201.97
2022-08-31T08:00:58.916Z,100193.56
2022-08-31T08:03:34.909Z,100206.22
2022-08-31T08:06:09.671Z,100190.91
2022-08-31T08:08:43.311Z,100196.31
2022-08-31T08:11:23.826Z,100196.69
2022-08-31T08:13:51.211Z,100189.25
2022-08-31T08:16:19.096Z,100198.66
2022-08-31T08:18:46.442Z,100203.72
2022-08-31T08:21:16.617Z,100210.38
2022-08-31T08:23:50.484Z,100215.38
2022-08-31T08:26:22.378Z,100218.78
2022-08-31T08:28:50.113Z,100218.66
2022-08-31T08:31:24.540Z,100212.06
2022-08-31T08:33:55.762Z,100213.81
2022-08-31T08:36:26.441Z,100207.94
2022-08-31T08:38:57.496Z,100224.22
2022-08-31T08:41:28.984Z,100215.56
2022-08-31T08:43:59.202Z,100216.72
2022-08-31T08:46:35.849Z,100220.09
2022-08-31T08:49:19.739Z,100224.66
2022-08-31T08:51:53.664Z,100214.50
2022-08-31T08:54:29.535Z,100208.22
2022-08-31T08:56:57.905Z,100209.81
2022-08-31T08:59:29.546Z,100204.31
2022-08-31T09:02:01.635Z,100202.91
2022-08-31T09:05:06.133Z,100196.28
2022-08-31T09:07:45.149Z,100189.38
2022-08-31T09:10:41.410Z,100186.31
2022-08-31T09:13:23.883Z,100194.09
2022-08-31T09:15:55.156Z,100187.94
2022-08-31T09:18:29.015Z,100182.25
2022-08-31T09:21:05.934Z,100182.84
2022-08-31T09:23:39.957Z,100183.16
2022-08-31T09:26:08.557Z,100177.78
2022-08-31T09:28:48.321Z,100179.47
2022-08-31T09:31:48.107Z,100181.09
2022-08-31T09:34:35.292Z,100182.00
2022-08-31T09:37:25.635Z,100183.22
2022-08-31T09:40:11.879Z,100174.13
2022-08-31T09:43:01.904Z,100182.00
2022-08-31T09:45:32.860Z,100170.56
2022-08-31T09:48:00.319Z,100165.13
2022-08-31T09:50:41.899Z,100169.56
2022-08-31T09:53:17.206Z,100167.47
2022-08-31T09:55:44.868Z,100174.19
2022-08-31T09:58:12.336Z,100168.88
2022-08-31T10:00:51.531Z,100162.34
2022-08-31T10:03:30.250Z,100157.31
2022-08-31T10:06:00.812Z,100161.34
2022-08-31T10:08:41.089Z,100154.78
2022-08-31T10:11:14.104Z,100154.00
2022-08-31T10:13:50.722Z,100149.72
2022-08-31T10:16:48.954Z,100141.91
2022-08-31T10:19:22.674Z,100144.75
2022-08-31T10:21:59.481Z,100144.41
2022-08-31T10:24:51.219Z,100140.78
2022-08-31T10:27:23.128Z,100132.56
2022-08-31T10:30:03.183Z,100140.19
2022-08-31T10:32:43.559Z,100138.16
2022-08-31T10:35:39.044Z,100131.59
2022-08-31T10:38:30.546Z,100127.38
2022-08-31T10:41:18.435Z,100128.94
2022-08-31T10:44:14.424Z,100113.63
2022-08-31T10:46:45.590Z,100106.22
2022-08-31T10:49:13.367Z,100098.09
2022-08-31T10:51:54.421Z,100095.38
2022-08-31T10:54:27.997Z,100089.41
2022-08-31T10:57:26.049Z,100091.28
2022-08-31T11:00:12.361Z,100085.38
2022-08-31T11:02:58.350Z,100081.50
2022-08-31T11:05:34.180Z,100073.78
2022-08-31T11:08:16.837Z,100073.44
2022-08-31T11:10:50.338Z,100071.84
2022-08-31T11:13:32.771Z,100067.88
2022-08-31T11:16:35.424Z,100072.69
2022-08-31T11:19:36.234Z,100063.63
2022-08-31T11:22:09.628Z,100062.75
2022-08-31T11:24:46.243Z,100060.72
2022-08-31T11:27:16.626Z,100064.69
2022-08-31T11:29:51.878Z,100061.47
2022-08-31T11:32:31.840Z,100051.31
2022-08-31T11:35:00.917Z,100042.72
2022-08-31T11:37:46.472Z,100045.47
2022-08-31T11:40:13.890Z,100043.44
2022-08-31T11:42:41.219Z,100036.81
2022-08-31T11:45:27.063Z,100041.59
2022-08-31T11:47:54.846Z,100037.28
2022-08-31T11:50:22.533Z,100029.06
2022-08-31T11:52:51.778Z,100027.16
2022-08-31T11:55:44.707Z,100022.41
2022-08-31T11:58:29.371Z,100018.16
2022-08-31T12:01:04.620Z,100006.00
2022-08-31T12:03:50.206Z,100000.94
2022-08-31T12:06:26.719Z,100005.66
2022-08-31T12:09:25.087Z,100002.16
2022-08-31T12:12:10.830Z,100001.38
2022-08-31T12:14:53.424Z,99998.25
2022-08-31T12:17:54.298Z,99991.91
2022-08-31T12:20:33.990Z,99978.94
2022-08-31T12:23:30.149Z,99977.38
2022-08-31T12:26:22.375Z,99976.22
2022-08-31T12:29:09.533Z,99973.13
2022-08-31T12:31:39.740Z,99971.94
2022-08-31T12:34:19.407Z,99972.34
2022-08-31T12:36:56.274Z,99971.50
2022-08-31T12:39:27.109Z,99962.50
2022-08-31T12:42:05.370Z,99966.84
2022-08-31T12:44:44.436Z,99955.09
2022-08-31T12:47:24.374Z,99957.41
2022-08-31T12:50:17.746Z,99964.47
2022-08-31T12:53:03.645Z,99973.13
2022-08-31T12:55:42.373Z,99973.09
2022-08-31T12:58:34.332Z,99966.06
2022-08-31T13:01:12.368Z,99968.41
2022-08-31T13:03:54.004Z,99963.72
2022-08-31T13:06:37.382Z,99968.41
2022-08-31T13:09:28.931Z,99965.31
2022-08-31T13:11:59.975Z,99963.72
2022-08-31T13:14:39.162Z,99970.78
2022-08-31T13:17:14.056Z,99956.28
2022-08-31T13:19:49.302Z,99961.00
2022-08-31T13:22:27.437Z,99964.53
2022-08-31T13:24:55.491Z,99968.44
2022-08-31T13:27:26.169Z,99962.16
2022-08-31T13:29:55.353Z,99966.88
2022-08-31T13:32:24.821Z,99958.66
2022-08-31T13:34:52.675Z,99957.88
2022-08-31T13:37:28.475Z,99957.06
2022-08-31T13:39:56.076Z,99951.97
2022-08-31T13:42:42.063Z,99960.63
2022-08-31T13:45:24.722Z,99958.25
2022-08-31T13:48:07.817Z,99957.47
2022-08-31T13:50:51.529Z,99967.25
2022-08-31T13:53:37.048Z,99968.44
2022-08-31T13:56:31.821Z,99966.47
2022-08-31T13:59:20.682Z,99978.59
2022-08-31T14:01:56.177Z,99993.50
2022-08-31T14:04:44.812Z,99997.81
2022-08-31T14:07:14.253Z,99990.00
2022-08-31T14:09:44.036Z,99993.50
2022-08-31T14:12:36.108Z,99986.44
2022-08-31T14:15:19.777Z,99979.38
2022-08-31T14:20:53.350Z,99969.19
2022-08-31T14:23:38.917Z,99976.22
2022-08-31T14:26:19.094Z,99978.19
2022-08-31T14:28:49.139Z,99988.38
2022-08-31T14:31:19.893Z,99987.56
2022-08-31T14:33:50.416Z,99980.84
2022-08-31T14:36:17.918Z,99987.13
2022-08-31T14:38:46.675Z,99987.06
2022-08-31T14:41:18.543Z,99994.88
2022-08-31T14:43:47.290Z,100005.03
2022-08-31T14:46:19.209Z,100004.66
2022-08-31T14:48:46.887Z,100005.41
2022-08-31T14:51:14.360Z,100012.09
2022-08-31T14:53:42.155Z,100016.78
2022-08-31T14:56:13.235Z,100010.88
2022-08-31T14:58:40.732Z,100015.94
2022-08-31T15:01:09.387Z,100004.47
2022-08-31T15:03:38.771Z,100005.00
2022-08-31T15:06:08.608Z,100006.09
2022-08-31T15:08:38.610Z,100013.09
2022-08-31T15:11:09.953Z,100011.72
2022-08-31T15:13:37.709Z,100014.28
2022-08-31T15:16:07.722Z,100015.16
2022-08-31T15:18:36.469Z,100015.91
2022-08-31T15:21:05.635Z,100028.31
2022-08-31T15:23:33.949Z,100029.75
2022-08-31T15:26:04.229Z,100029.19
2022-08-31T15:28:37.201Z,100024.38
2022-08-31T15:31:05.843Z,100013.44
2022-08-31T15:33:33.511Z,100014.28
2022-08-31T15:36:12.129Z,100020.84
2022-08-31T15:38:40.216Z,100014.91
2022-08-31T15:41:10.323Z,100010.59
2022-08-31T15:43:38.730Z,100006.78
2022-08-31T15:46:06.386Z,99998.16
2022-08-31T15:48:33.946Z,99991.16
2022-08-31T15:51:01.588Z,99988.41
2022-08-31T15:53:29.916Z,99985.53
2022-08-31T15:56:06.402Z,99991.31
2022-08-31T15:58:37.641Z,99988.28
2022-08-31T16:01:11.922Z,99989.75
2022-08-31T16:03:40.963Z,99982.63
2022-08-31T16:06:10.106Z,99985.78
2022-08-31T16:08:41.393Z,99991.25
2022-08-31T16:11:10.281Z,99998.31
2022-08-31T16:13:42.237Z,99996.41
2022-08-31T16:16:09.896Z,99989.31
2022-08-31T16:18:37.380Z,99998.31
2022-08-31T16:21:06.568Z,99989.31
2022-08-31T16:23:34.036Z,99995.06
2022-08-31T16:26:02.181Z,99985.63
2022-08-31T16:28:31.654Z,99995.09
2022-08-31T16:31:00.212Z,100000.28
2022-08-31T16:33:31.110Z,100000.28
2022-08-31T16:35:58.444Z,99992.13
2022-08-31T16:38:25.717Z,99981.91
2022-08-31T16:40:53.244Z,99982.63
2022-08-31T16:43:20.713Z,99990.03
2022-08-31T16:45:48.126Z,99993.06
2022-08-31T16:48:15.641Z,99997.88
2022-08-31T16:50:45.394Z,99993.44
2022-08-31T16:53:16.458Z,99992.22
2022-08-31T16:55:44.933Z,99992.44
2022-08-31T16:58:12.387Z,99990.00
2022-08-31T17:00:41.222Z,99988.44
2022-08-31T17:03:11.996Z,99993.03
2022-08-31T17:05:39.183Z,99994.09
2022-08-31T17:08:06.504Z,99992.69
2022-08-31T17:10:33.870Z,99995.16
2022-08-31T17:13:01.281Z,100001.22
2022-08-31T17:15:28.947Z,100004.88
2022-08-31T17:17:56.342Z,100012.94
2022-08-31T17:20:23.919Z,100005.75
2022-08-31T17:22:53.200Z,100015.47
2022-08-31T17:25:20.772Z,100021.66
2022-08-31T17:27:51.119Z,100027.97
2022-08-31T17:30:19.695Z,100022.66
2022-08-31T17:32:47.281Z,100019.34
2022-08-31T17:35:15.455Z,100017.50
2022-08-31T17:37:48.580Z,100014.34
2022-08-31T17:40:16.096Z,100021.09
2022-08-31T17:42:43.618Z,100020.25
2022-08-31T17:45:16.756Z,100021.41
2022-08-31T17:47:44.390Z,100029.78
2022-08-31T17:50:11.907Z,100031.25
2022-08-31T17:52:39.408Z,100035.84
2022-08-31T17:55:07.228Z,100036.72
2022-08-31T17:57:34.697Z,100033.66
2022-08-31T18:00:02.661Z,100025.47
2022-08-31T18:02:30.489Z,100032.59
2022-08-31T18:04:58.538Z,100036.47
2022-08-31T18:07:26.108Z,100042.25
2022-08-31T18:09:53.655Z,100051.91
2022-08-31T18:12:22.023Z,100052.13
2022-08-31T18:14:50.483Z,100056.38
2022-08-31T18:17:18.394Z,100060.97
2022-08-31T18:19:46.049Z,100063.28
2022-08-31T18:22:16.448Z,100057.03
2022-08-31T18:24:44.322Z,100050.97
2022-08-31T18:27:12.875Z,100058.44
2022-08-31T18:29:40.607Z,100057.94
2022-08-31T18:32:08.650Z,100069.31
2022-08-31T18:34:40.061Z,100075.59
2022-08-31T18:37:08.082Z,100079.75
2022-08-31T18:39:51.631Z,100076.09
2022-08-31T18:42:21.364Z,100078.28
2022-08-31T18:44:49.056Z,100080.75
2022-08-31T18:47:16.882Z,100078.34
2022-08-31T18:49:44.633Z,100077.38
2022-08-31T18:52:19.423Z,100071.59
2022-08-31T18:54:53.946Z,100074.94
2022-08-31T18:57:27.946Z,100074.19
2022-08-31T18:59:56.316Z,100070.44
2022-08-31T19:02:24.065Z,100067.66
2022-08-31T19:05:07.339Z,100061.47
2022-08-31T19:07:35.314Z,100059.44
2022-08-31T19:10:03.047Z,100051.88
2022-08-31T19:12:30.612Z,100046.72
2022-08-31T19:14:58.360Z,100045.50
2022-08-31T19:17:26.013Z,100049.94
2022-08-31T19:19:53.516Z,100050.25
2022-08-31T19:22:21.801Z,100051.97
2022-08-31T19:24:49.769Z,100042.22
2022-08-31T19:27:17.579Z,100041.91
2022-08-31T19:29:45.269Z,100046.22
2022-08-31T19:32:13.618Z,100040.72
2022-08-31T19:34:42.075Z,100055.19
2022-08-31T19:37:10.707Z,100054.69
2022-08-31T19:39:38.211Z,100063.84
2022-08-31T19:42:07.498Z,100058.84
2022-08-31T19:47:25.114Z,100052.97
2022-08-31T19:49:53.021Z,100051.03
2022-08-31T19:52:20.503Z,100055.25
2022-08-31T19:54:47.932Z,100050.97
2022-08-31T19:57:15.398Z,100053.16
2022-08-31T19:59:45.676Z,100046.06
2022-08-31T20:02:13.264Z,100046.41
2022-08-31T20:04:40.704Z,100053.31
2022-08-31T20:07:08.191Z,100050.41
2022-08-31T20:09:36.437Z,100048.91
2022-08-31T20:12:04.110Z,100051.03
2022-08-31T20:14:31.703Z,100050.31
2022-08-31T20:16:59.530Z,100050.97
2022-08-31T20:19:28.084Z,100049.81
2022-08-31T20:21:58.084Z,100052.09
2022-08-31T20:24:26.832Z,100045.22
2022-08-31T20:26:55.267Z,100049.59
2022-08-31T20:29:29.837Z,100051.38
2022-08-31T20:32:00.803Z,100051.56
2022-08-31T20:34:28.300Z,100057.03
2022-08-31T20:37:00.951Z,100054.97
2022-08-31T20:39:31.200Z,100060.13
2022-08-31T20:41:59.193Z,100058.41
2022-08-31T20:44:29.936Z,100057.69
2022-08-31T20:46:59.136Z,100063.88
2022-08-31T20:49:28.660Z,100066.44
2022-08-31T20:51:58.954Z,100055.06
2022-08-31T20:54:29.751Z,100048.75
2022-08-31T20:57:01.471Z,100054.78
2022-08-31T20:59:29.917Z,100050.41
2022-08-31T21:01:59.235Z,100048.31
2022-08-31T21:04:28.206Z,100050.84
2022-08-31T21:06:58.967Z,100051.53
2022-08-31T21:09:26.555Z,100044.97
2022-08-31T21:11:55.612Z,100054.00
2022-08-31T21:14:27.822Z,100047.16
2022-08-31T21:16:56.338Z,100055.31
2022-08-31T21:19:24.777Z,100056.28
2022-08-31T21:21:55.119Z,100048.34
2022-08-31T21:24:22.969Z,100049.94
2022-08-31T21:26:54.117Z,100055.38
2022-08-31T21:29:21.699Z,100058.97
2022-08-31T21:31:59.935Z,100072.78
2022-08-31T21:34:31.091Z,100070.31
2022-08-31T21:36:58.569Z,100064.47
2022-08-31T21:39:26.209Z,100069.59
2022-08-31T21:41:54.320Z,100064.09
2022-08-31T21:44:22.454Z,100063.09
2022-08-31T21:46:50.989Z,100069.00
2022-08-31T21:49:19.238Z,100065.34
2022-08-31T21:51:50.428Z,100065.97
2022-08-31T21:54:20.637Z,100069.31
2022-08-31T21:56:51.617Z,100064.06
2022-08-31T21:59:21.566Z,100062.81
2022-08-31T22:01:50.863Z,100063.59
2022-08-31T22:04:18.401Z,100065.88
2022-08-31T22:06:45.878Z,100055.84
2022-08-31T22:09:16.549Z,100057.56
2022-08-31T22:11:46.304Z,100052.66
2022-08-31T22:14:16.752Z,100048.34
2022-08-31T22:16:45.578Z,100039.78
2022-08-31T22:19:16.524Z,100028.91
2022-08-31T22:21:47.607Z,100035.56
2022-08-31T22:24:27.525Z,100033.44
2022-08-31T22:26:58.239Z,100030.72
2022-08-31T22:29:29.492Z,100032.78
2022-08-31T22:32:01.250Z,100037.16
2022-08-31T22:34:29.336Z,100022.91
2022-08-31T22:36:57.285Z,100029.56
2022-08-31T22:39:27.546Z,100027.59
2022-08-31T22:41:56.392Z,100028.56
2022-08-31T22:44:26.743Z,100036.13
2022-08-31T22:46:55.325Z,100042.19
2022-08-31T22:49:23.723Z,100046.69
2022-08-31T22:51:54.765Z,100045.97
2022-08-31T22:54:24.132Z,100043.78
2022-08-31T22:56:52.016Z,100052.66
2022-08-31T22:59:21.930Z,100044.19
2022-08-31T23:01:51.536Z,100035.78
2022-08-31T23:04:19.830Z,100031.56
2022-08-31T23:06:50.086Z,100025.00
2022-08-31T23:09:19.514Z,100025.00
2022-08-31T23:11:47.200Z,100021.34
2022-08-31T23:14:14.779Z,100026.72
2022-08-31T23:16:48.136Z,100033.56
2022-08-31T23:19:19.591Z,100036.59
2022-08-31T23:21:53.048Z,100031.75
2022-08-31T23:24:29.963Z,100025.66
2022-08-31T23:27:04.245Z,100022.69
2022-08-31T23:29:35.199Z,100014.97
2022-08-31T23:32:03.398Z,100015.00
2022-08-31T23:34:31.154Z,100013.94
2022-08-31T23:36:58.344Z,100010.66
2022-08-31T23:39:25.625Z,100004.72
2022-08-31T23:41:53.635Z,100002.47
2022-08-31T23:44:22.073Z,100006.34
2022-08-31T23:46:49.313Z,100006.69
2022-08-31T23:49:19.444Z,100004.13
2022-08-31T23:51:47.508Z,100007.72
2022-08-31T23:54:15.008Z,100007.28
2022-08-31T23:56:44.520Z,100004.81
2022-08-31T23:59:19.052Z,100008.88
